ADDS METAR Data INFO
IDs: Format: Raw Decoded Include TAF

Data at: 0731 UTC 18 Oct 2017

KLFT 180653Z AUTO 00000KT 10SM CLR 14/14 A3016 RMK AO2 SLP213 T01440139
KLFT 180553Z AUTO 00000KT 10SM CLR 15/13 A3016 RMK AO2 SLP213 T01500133 10200 20150 402610094 57005
KLFT 180453Z AUTO 00000KT 10SM CLR 16/13 A3017 RMK AO2 SLP216 T01560133
KLFT 180353Z AUTO 00000KT 10SM CLR 17/14 A3017 RMK AO2 SLP216 T01670144
KLFT 180253Z 00000KT 10SM CLR 17/14 A3018 RMK AO2 SLP218 T01670139 51016
KLFT 180153Z 34003KT 10SM CLR 17/13 A3017 RMK AO2 SLP214 T01720133
KLFT 180053Z 00000KT 10SM CLR 19/14 A3015 RMK AO2 SLP208 T01890144
KLFT 172353Z 00000KT 10SM CLR 20/14 A3013 RMK AO2 SLP203 T02000139 10261 20200 55000
KLFT 172253Z 07005KT 10SM CLR 24/11 A3012 RMK AO2 SLP200 T02390111
KLFT 172153Z 03009KT 10SM CLR 26/09 A3013 RMK AO2 SLP201 T02560094
KLFT 172053Z 02011KT 10SM CLR 26/08 A3013 RMK AO2 SLP203 T02560083 56021
KLFT 171953Z AUTO 01009KT 10SM CLR 26/08 A3014 RMK AO2 SLP206 T02560083
KLFT 171853Z 01010KT 10SM CLR 25/09 A3017 RMK AO2 SLP216 T02500089
KLFT 171753Z VRB05KT 3SM HZ CLR 23/09 A3020 RMK AO2 SLP225 T02330089 10233 20094 58013
KLFT 171653Z 10SM CLR 21/09 A3022 RMK AO2 SLP232 T02110094
KLFT 171553Z 02005KT 10SM CLR 19/09 A3023 RMK AO2 SLP235 T01890089
KLFT 171453Z 04010KT 10SM CLR 16/09 A3023 RMK AO2 SLP238 T01610094 50004
KLFT 171353Z 03010KT 10SM CLR 13/09 A3024 RMK AO2 SLP241 T01330094
KLFT 171253Z 02006KT 10SM CLR 11/09 A3023 RMK AO2 SLP236 T01060089
KLFT 171153Z 03005KT 10SM CLR 09/08 A3022 RMK AO2 SLP233 T00940078 10133 20094 53013
KLFT 171053Z 01006KT 10SM CLR 10/08 A3021 RMK AO2 SLP228 T01000083
KLFT 170953Z 02006KT 10SM CLR 11/08 A3019 RMK AO2 SLP222 T01060083
KLFT 170853Z 02006KT 10SM CLR 11/08 A3018 RMK AO2 SLP220 T01110083 56006
KLFT 170753Z 02006KT 10SM CLR 12/08 A3018 RMK AO2 SLP221 T01170083
KLFT 170653Z 02007KT 10SM CLR 12/08 A3019 RMK AO2 SLP224 T01220083
KLFT 170553Z 02006KT 10SM CLR 13/08 A3020 RMK AO2 SLP227 T01280083 10206 20122 402500122 58005
KLFT 170453Z 03006KT 10SM CLR 14/08 A3021 RMK AO2 SLP231 T01390078
KLFT 170353Z 02008KT 10SM CLR 14/08 A3021 RMK AO2 SLP230 T01440083
KLFT 170253Z 03005KT 10SM CLR 15/08 A3022 RMK AO2 SLP232 T01500078 51023
KLFT 170153Z 02006KT 10SM CLR 16/08 A3020 RMK AO2 SLP226 T01610083
KLFT 170053Z 01009KT 10SM CLR 19/07 A3018 RMK AO2 SLP218 T01890072
KLFT 162353Z 02010KT 10SM CLR 21/07 A3015 RMK AO2 SLP208 T02060067 10250 20206 53015
KLFT 162253Z 01011KT 10SM CLR 22/07 A3012 RMK AO2 SLP200 T02220067
KLFT 162153Z 02014G19KT 10SM CLR 23/07 A3011 RMK AO2 SLP197 T02280072
KLFT 162053Z 03018G24KT 10SM CLR 24/05 A3011 RMK AO2 PK WND 01026/2034 SLP194 T02440050 56023
KLFT 161953Z 01015KT 10SM CLR 24/07 A3011 RMK AO2 SLP196 T02390067